Accueil
METAR-TAF:

METAR-TAF

Aéroports :

Garfield County Regional Airport

Rifle, Colorado, États-Unis

latitude: 39-31-30N, longitude: 107-43-38W, altitude: 1690 m

Observation

Le bulletin a été fait il y a 58 minutes, à 14:53 UTC
Vent calme
Température -4°C
Humidité 68%
Pression 1027 hPa
Visibilité: 16.1 km
Ciel clair

METAR: KRIL 141453Z AUTO 00000KT 10SM CLR M04/M09 A3034 RMK AO2 SLP293 T10441089 51015

Heure: 08:51 (15:51 UTC)

Prévision

Le bulletin a été fait il y a 4 heures et 31 minutes, à 11:20 UTC
Prévision valable du 14 à 12 UTC au 15 à 12 UTC
Vent 3 kt de direction variable
Visibilité: 10 km
Quelques nuages à une hauteur de 15000 ft
Nuages épars à une hauteur de 20000 ft

TAF: KRIL 141120Z 1412/1512 VRB03KT P6SM FEW150 SCT200

Observations et prévisions météorologiques de plus de 4000 aéroports (messages METAR et TAF).

Les stations disponibles sont représentées par des disques jaunes et rouges sur la carte.

Passer la souris dessus pour voir le nom de la station.

Cliquer dessus pour voir les observations et prévisions météorologiques.

Pour changer de carte: cliquez sur les boutons verts avec une croix noire pour zoomer, sur le bouton vert avec un tiret pour effectuer un zoom arrière, ou sur les flèches vertes pour les cartes adjacentes.


METAR-TAF: